Rechercher aéroport 
image banner adimage banner adimage banner ad
image banner ad

CA69 - Avenal

Situé à Avenal, United States

ICAO - CA69, IATA -

Données fournies par Airmate  

Information générale

Coordonnées: N36°0'11" W120°8'32"
Élévation : 782 feet MSL.
Variation magnétique : 15° East
Voir autres Aéroports à California

Données opérationnelles

Special qualification required
Heure actuelle UTC:
Heure actuelle locale:
Météo à : KNLC - Lemoore Nas (Reeves Fld) ( 40 km )
METAR: KNLC 262156Z 13008KT 10SM SCT200 38/07 A2985 RMK AO2 SLP104 RH/15 T03780067
TAF: TAF KNLC 2615/2715 VRB06KT 9999 BKN200 QNH2977INS BECMG 2703/2705 32006KT 9999 BKN120 651507 QNH2984INS T37/2623Z T22/2713Z FS30184
Voir NOTAMs / SUP AIP / TFR affectant cet aéroport [VIEW]
Fréquences de communication: [VIEW]

Pistes:

Identifiant RWYQFULongueur (ft)Largeur (ft)SurfaceLDA (ft)
12277060EARTH
30277060EARTH

Coordonnées de l'aéroport

Adresse: Avenal United States

Vue satellite de CA69